sensor_id;sensor_type;location;lat;lon;timestamp;pressure;altitude;pressure_sealevel;temperature;humidity
55347;BME280;41218;55.700;38.270;2022-08-06T00:03:37;100365.94;;;19.39;58.36
55347;BME280;41218;55.700;38.270;2022-08-06T00:08:38;100379.19;;;19.35;58.29
55347;BME280;41218;55.700;38.270;2022-08-06T00:13:38;100399.97;;;19.37;58.43
55347;BME280;41218;55.700;38.270;2022-08-06T00:18:39;100395.66;;;19.29;58.66
55347;BME280;41218;55.700;38.270;2022-08-06T00:23:40;100383.69;;;19.25;59.07
55347;BME280;41218;55.700;38.270;2022-08-06T00:28:40;100390.53;;;19.20;59.29
55347;BME280;41218;55.700;38.270;2022-08-06T00:33:41;100394.16;;;19.17;59.27
55347;BME280;41218;55.700;38.270;2022-08-06T00:38:42;100398.97;;;19.13;59.43
55347;BME280;41218;55.700;38.270;2022-08-06T00:43:42;100400.63;;;19.11;59.21
55347;BME280;41218;55.700;38.270;2022-08-06T00:48:43;100398.22;;;19.09;59.34
55347;BME280;41218;55.700;38.270;2022-08-06T00:53:44;100391.88;;;19.01;59.60
55347;BME280;41218;55.700;38.270;2022-08-06T00:58:44;100409.88;;;19.04;59.72
55347;BME280;41218;55.700;38.270;2022-08-06T01:03:45;100408.19;;;19.14;59.45
55347;BME280;41218;55.700;38.270;2022-08-06T01:08:46;100393.53;;;18.95;59.32
55347;BME280;41218;55.700;38.270;2022-08-06T01:13:46;100402.31;;;18.97;59.50
55347;BME280;41218;55.700;38.270;2022-08-06T01:19:48;100403.56;;;18.93;60.25
55347;BME280;41218;55.700;38.270;2022-08-06T01:30:17;100405.59;;;18.85;60.43
55347;BME280;41218;55.700;38.270;2022-08-06T01:35:22;100407.63;;;18.81;60.20
55347;BME280;41218;55.700;38.270;2022-08-06T01:40:29;100410.03;;;18.75;60.53
55347;BME280;41218;55.700;38.270;2022-08-06T01:45:33;100413.66;;;18.76;60.69
55347;BME280;41218;55.700;38.270;2022-08-06T01:50:45;100411.66;;;18.73;60.76
55347;BME280;41218;55.700;38.270;2022-08-06T01:55:51;100416.47;;;18.72;60.96
55347;BME280;41218;55.700;38.270;2022-08-06T02:00:54;100426.06;;;18.71;60.77
55347;BME280;41218;55.700;38.270;2022-08-06T02:05:56;100421.69;;;18.67;60.94
55347;BME280;41218;55.700;38.270;2022-08-06T02:10:59;100424.88;;;18.69;60.92
55347;BME280;41218;55.700;38.270;2022-08-06T02:16:02;100424.09;;;18.65;61.06
55347;BME280;41218;55.700;38.270;2022-08-06T02:32:17;100421.69;;;18.63;61.87
55347;BME280;41218;55.700;38.270;2022-08-06T02:37:43;100429.31;;;18.62;61.93
55347;BME280;41218;55.700;38.270;2022-08-06T02:43:12;100428.91;;;18.64;61.98
55347;BME280;41218;55.700;38.270;2022-08-06T02:48:26;100429.31;;;18.62;62.06
55347;BME280;41218;55.700;38.270;2022-08-06T02:53:34;100444.91;;;18.64;62.16
55347;BME280;41218;55.700;38.270;2022-08-06T02:58:44;100426.91;;;18.65;63.13
55347;BME280;41218;55.700;38.270;2022-08-06T03:03:48;100426.13;;;18.64;62.93
55347;BME280;41218;55.700;38.270;2022-08-06T03:08:51;100424.50;;;18.67;63.05
55347;BME280;41218;55.700;38.270;2022-08-06T03:13:53;100430.47;;;18.69;62.87
55347;BME280;41218;55.700;38.270;2022-08-06T03:18:56;100420.44;;;18.75;62.73
55347;BME280;41218;55.700;38.270;2022-08-06T03:23:58;100426.84;;;18.79;63.23
55347;BME280;41218;55.700;38.270;2022-08-06T03:29:00;100432.00;;;18.88;63.67
55347;BME280;41218;55.700;38.270;2022-08-06T03:34:01;100424.78;;;18.90;64.13
55347;BME280;41218;55.700;38.270;2022-08-06T03:39:05;100427.47;;;19.05;64.88
55347;BME280;41218;55.700;38.270;2022-08-06T03:44:07;100433.84;;;19.12;64.85
55347;BME280;41218;55.700;38.270;2022-08-06T03:49:16;100434.56;;;19.20;66.47
55347;BME280;41218;55.700;38.270;2022-08-06T03:54:24;100440.44;;;19.36;66.43
55347;BME280;41218;55.700;38.270;2022-08-06T03:59:26;100444.34;;;19.46;65.85
55347;BME280;41218;55.700;38.270;2022-08-06T04:04:30;100440.97;;;19.66;65.72
55347;BME280;41218;55.700;38.270;2022-08-06T04:09:32;100441.25;;;19.82;65.87
55347;BME280;41218;55.700;38.270;2022-08-06T04:14:34;100446.28;;;19.98;65.89
55347;BME280;41218;55.700;38.270;2022-08-06T04:19:35;100448.84;;;20.19;65.60
55347;BME280;41218;55.700;38.270;2022-08-06T04:24:36;100439.81;;;20.35;65.36
55347;BME280;41218;55.700;38.270;2022-08-06T04:29:37;100440.31;;;20.61;65.03
55347;BME280;41218;55.700;38.270;2022-08-06T04:34:39;100431.59;;;20.83;65.16
55347;BME280;41218;55.700;38.270;2022-08-06T04:39:41;100435.69;;;21.05;64.67
55347;BME280;41218;55.700;38.270;2022-08-06T04:44:42;100447.31;;;21.31;64.28
55347;BME280;41218;55.700;38.270;2022-08-06T04:49:43;100426.97;;;21.47;64.13
55347;BME280;41218;55.700;38.270;2022-08-06T04:54:44;100434.69;;;21.66;63.87
55347;BME280;41218;55.700;38.270;2022-08-06T04:59:44;100444.31;;;21.89;63.62
55347;BME280;41218;55.700;38.270;2022-08-06T05:04:45;100435.94;;;22.05;62.95
55347;BME280;41218;55.700;38.270;2022-08-06T05:09:47;100437.19;;;22.24;62.60
55347;BME280;41218;55.700;38.270;2022-08-06T05:14:54;100426.81;;;22.41;62.14
55347;BME280;41218;55.700;38.270;2022-08-06T05:20:04;100432.06;;;22.59;61.79
55347;BME280;41218;55.700;38.270;2022-08-06T05:25:07;100424.84;;;22.74;61.29
55347;BME280;41218;55.700;38.270;2022-08-06T05:30:08;100419.34;;;22.87;60.92
55347;BME280;41218;55.700;38.270;2022-08-06T05:35:09;100428.09;;;23.09;60.23
55347;BME280;41218;55.700;38.270;2022-08-06T05:40:10;100409.75;;;23.17;59.77
55347;BME280;41218;55.700;38.270;2022-08-06T05:45:12;100420.44;;;23.43;58.87
55347;BME280;41218;55.700;38.270;2022-08-06T05:50:22;100411.59;;;23.57;58.53
55347;BME280;41218;55.700;38.270;2022-08-06T06:00:53;100409.06;;;23.92;57.50
55347;BME280;41218;55.700;38.270;2022-08-06T06:05:59;100410.59;;;24.09;56.02
55347;BME280;41218;55.700;38.270;2022-08-06T06:11:00;100376.66;;;23.96;55.97
55347;BME280;41218;55.700;38.270;2022-08-06T06:21:38;100418.13;;;24.42;55.22
55347;BME280;41218;55.700;38.270;2022-08-06T06:26:58;100394.59;;;24.32;54.68
55347;BME280;41218;55.700;38.270;2022-08-06T06:32:14;100415.59;;;24.60;54.73
55347;BME280;41218;55.700;38.270;2022-08-06T06:37:41;100399.19;;;24.68;54.84
55347;BME280;41218;55.700;38.270;2022-08-06T06:43:15;100403.25;;;24.92;54.40
55347;BME280;41218;55.700;38.270;2022-08-06T06:48:20;100381.88;;;24.91;54.29
55347;BME280;41218;55.700;38.270;2022-08-06T06:53:23;100393.72;;;25.12;54.11
55347;BME280;41218;55.700;38.270;2022-08-06T06:58:36;100404.34;;;25.33;53.69
55347;BME280;41218;55.700;38.270;2022-08-06T07:03:39;100394.25;;;25.45;53.28
55347;BME280;41218;55.700;38.270;2022-08-06T07:08:45;100389.66;;;25.61;53.17
55347;BME280;41218;55.700;38.270;2022-08-06T07:13:48;100397.84;;;25.81;52.74
55347;BME280;41218;55.700;38.270;2022-08-06T07:18:52;100388.75;;;25.98;52.60
55347;BME280;41218;55.700;38.270;2022-08-06T07:23:56;100389.63;;;26.17;52.07
55347;BME280;41218;55.700;38.270;2022-08-06T07:28:57;100384.25;;;26.32;51.28
55347;BME280;41218;55.700;38.270;2022-08-06T07:34:00;100393.38;;;26.58;51.14
55347;BME280;41218;55.700;38.270;2022-08-06T07:39:02;100375.00;;;26.72;50.59
55347;BME280;41218;55.700;38.270;2022-08-06T07:44:05;100395.25;;;26.93;50.10
55347;BME280;41218;55.700;38.270;2022-08-06T07:49:08;100381.72;;;26.97;49.88
55347;BME280;41218;55.700;38.270;2022-08-06T07:54:10;100376.41;;;27.17;49.61
55347;BME280;41218;55.700;38.270;2022-08-06T07:59:11;100376.13;;;27.34;49.26
55347;BME280;41218;55.700;38.270;2022-08-06T08:04:13;100352.47;;;27.37;48.44
55347;BME280;41218;55.700;38.270;2022-08-06T08:09:35;100372.53;;;27.70;47.77
55347;BME280;41218;55.700;38.270;2022-08-06T08:14:37;100372.34;;;27.83;48.06
55347;BME280;41218;55.700;38.270;2022-08-06T08:19:38;100366.34;;;28.00;47.76
55347;BME280;41218;55.700;38.270;2022-08-06T08:24:39;100366.97;;;28.13;47.20
55347;BME280;41218;55.700;38.270;2022-08-06T08:29:41;100350.69;;;28.13;47.03
55347;BME280;41218;55.700;38.270;2022-08-06T08:34:42;100358.38;;;28.31;46.72
55347;BME280;41218;55.700;38.270;2022-08-06T08:39:42;100350.94;;;28.43;46.55
55347;BME280;41218;55.700;38.270;2022-08-06T08:44:44;100356.44;;;28.56;46.23
55347;BME280;41218;55.700;38.270;2022-08-06T08:49:52;100349.72;;;28.68;45.79
55347;BME280;41218;55.700;38.270;2022-08-06T08:55:02;100323.19;;;28.71;44.94
55347;BME280;41218;55.700;38.270;2022-08-06T09:00:05;100345.78;;;28.99;45.12
55347;BME280;41218;55.700;38.270;2022-08-06T09:05:06;100328.66;;;29.08;45.11
55347;BME280;41218;55.700;38.270;2022-08-06T09:10:08;100342.78;;;29.27;44.35
55347;BME280;41218;55.700;38.270;2022-08-06T09:15:09;100324.03;;;29.35;44.20
55347;BME280;41218;55.700;38.270;2022-08-06T09:20:10;100335.56;;;29.41;43.63
55347;BME280;41218;55.700;38.270;2022-08-06T09:25:40;100336.16;;;29.45;43.75
55347;BME280;41218;55.700;38.270;2022-08-06T09:30:56;100326.03;;;29.44;43.15
55347;BME280;41218;55.700;38.270;2022-08-06T09:41:10;100318.53;;;29.31;42.79
55347;BME280;41218;55.700;38.270;2022-08-06T09:46:11;100319.63;;;29.34;42.85
55347;BME280;41218;55.700;38.270;2022-08-06T09:51:21;100326.84;;;29.44;42.86
55347;BME280;41218;55.700;38.270;2022-08-06T09:56:22;100311.53;;;29.56;42.70
55347;BME280;41218;55.700;38.270;2022-08-06T10:01:23;100326.03;;;29.83;42.34
55347;BME280;41218;55.700;38.270;2022-08-06T10:06:24;100310.41;;;29.93;41.70
55347;BME280;41218;55.700;38.270;2022-08-06T10:11:39;100317.06;;;30.05;41.35
55347;BME280;41218;55.700;38.270;2022-08-06T10:16:40;100272.47;;;29.72;41.50
55347;BME280;41218;55.700;38.270;2022-08-06T10:21:41;100291.06;;;29.97;41.73
55347;BME280;41218;55.700;38.270;2022-08-06T10:26:44;100289.97;;;30.09;41.34
55347;BME280;41218;55.700;38.270;2022-08-06T10:31:46;100286.41;;;30.29;40.68
55347;BME280;41218;55.700;38.270;2022-08-06T10:36:54;100279.69;;;30.47;39.58
55347;BME280;41218;55.700;38.270;2022-08-06T10:41:55;100276.72;;;30.57;39.13
55347;BME280;41218;55.700;38.270;2022-08-06T10:46:57;100262.25;;;30.60;39.25
55347;BME280;41218;55.700;38.270;2022-08-06T10:51:58;100282.31;;;30.86;38.68
55347;BME280;41218;55.700;38.270;2022-08-06T10:57:00;100274.41;;;30.96;38.26
55347;BME280;41218;55.700;38.270;2022-08-06T11:07:27;100264.81;;;30.79;38.57
55347;BME280;41218;55.700;38.270;2022-08-06T11:12:50;100264.81;;;30.79;37.81
55347;BME280;41218;55.700;38.270;2022-08-06T11:18:04;100262.66;;;30.88;38.67
55347;BME280;41218;55.700;38.270;2022-08-06T11:23:22;100241.94;;;30.93;38.44
55347;BME280;41218;55.700;38.270;2022-08-06T11:54:08;100227.09;;;30.69;38.75
55347;BME280;41218;55.700;38.270;2022-08-06T11:59:14;100216.59;;;30.60;38.70
55347;BME280;41218;55.700;38.270;2022-08-06T12:09:38;100200.91;;;30.50;38.79
55347;BME280;41218;55.700;38.270;2022-08-06T12:14:40;100194.19;;;30.53;38.68
55347;BME280;41218;55.700;38.270;2022-08-06T12:19:45;100221.78;;;30.62;38.72
55347;BME280;41218;55.700;38.270;2022-08-06T12:24:50;100223.38;;;30.63;38.41
55347;BME280;41218;55.700;38.270;2022-08-06T12:29:56;100202.81;;;30.79;38.08
55347;BME280;41218;55.700;38.270;2022-08-06T12:34:59;100191.31;;;30.88;37.99
55347;BME280;41218;55.700;38.270;2022-08-06T12:40:02;100188.50;;;30.94;37.38
55347;BME280;41218;55.700;38.270;2022-08-06T12:45:23;100165.81;;;30.85;37.67
55347;BME280;41218;55.700;38.270;2022-08-06T12:50:24;100160.47;;;30.92;37.50
55347;BME280;41218;55.700;38.270;2022-08-06T12:55:25;100172.63;;;31.13;36.55
55347;BME280;41218;55.700;38.270;2022-08-06T13:00:27;100164.41;;;31.21;36.54
55347;BME280;41218;55.700;38.270;2022-08-06T13:05:28;100147.09;;;31.04;37.42
55347;BME280;41218;55.700;38.270;2022-08-06T13:10:29;100152.84;;;31.10;38.48
55347;BME280;41218;55.700;38.270;2022-08-06T13:15:31;100133.91;;;31.07;38.08
55347;BME280;41218;55.700;38.270;2022-08-06T13:20:43;100135.84;;;31.21;37.88
55347;BME280;41218;55.700;38.270;2022-08-06T13:25:47;100132.84;;;31.36;37.91
55347;BME280;41218;55.700;38.270;2022-08-06T13:30:50;100118.31;;;31.34;37.75
55347;BME280;41218;55.700;38.270;2022-08-06T13:36:07;100126.81;;;31.28;37.58
55347;BME280;41218;55.700;38.270;2022-08-06T13:41:08;100114.66;;;31.33;37.91
55347;BME280;41218;55.700;38.270;2022-08-06T13:46:13;100117.81;;;31.35;37.76
55347;BME280;41218;55.700;38.270;2022-08-06T13:51:15;100105.31;;;31.33;37.63
55347;BME280;41218;55.700;38.270;2022-08-06T13:56:16;100097.53;;;31.33;37.51
55347;BME280;41218;55.700;38.270;2022-08-06T14:01:17;100100.56;;;31.24;37.94
55347;BME280;41218;55.700;38.270;2022-08-06T14:06:18;100106.84;;;31.02;39.28
55347;BME280;41218;55.700;38.270;2022-08-06T14:11:18;100102.19;;;30.79;42.03
55347;BME280;41218;55.700;38.270;2022-08-06T14:16:19;100118.88;;;30.65;42.87
55347;BME280;41218;55.700;38.270;2022-08-06T14:21:19;100095.06;;;30.27;43.52
55347;BME280;41218;55.700;38.270;2022-08-06T14:26:20;100119.00;;;30.15;44.36
55347;BME280;41218;55.700;38.270;2022-08-06T14:31:20;100089.16;;;29.75;45.90
55347;BME280;41218;55.700;38.270;2022-08-06T14:36:21;100107.63;;;29.65;47.28
55347;BME280;41218;55.700;38.270;2022-08-06T14:41:22;100131.41;;;29.62;46.99
55347;BME280;41218;55.700;38.270;2022-08-06T14:46:41;100115.44;;;29.34;47.12
55347;BME280;41218;55.700;38.270;2022-08-06T14:51:41;100111.38;;;29.11;47.68
55347;BME280;41218;55.700;38.270;2022-08-06T14:56:43;100115.38;;;28.90;47.73
55347;BME280;41218;55.700;38.270;2022-08-06T15:01:45;100121.75;;;28.85;47.96
55347;BME280;41218;55.700;38.270;2022-08-06T15:06:46;100118.28;;;28.66;49.36
55347;BME280;41218;55.700;38.270;2022-08-06T15:11:47;100110.34;;;28.46;50.21
55347;BME280;41218;55.700;38.270;2022-08-06T15:16:48;100116.09;;;28.36;50.66
55347;BME280;41218;55.700;38.270;2022-08-06T15:21:49;100094.00;;;28.16;51.67
55347;BME280;41218;55.700;38.270;2022-08-06T15:26:49;100084.25;;;28.08;53.18
55347;BME280;41218;55.700;38.270;2022-08-06T15:31:50;100109.03;;;28.08;54.07
55347;BME280;41218;55.700;38.270;2022-08-06T15:36:50;100099.75;;;27.98;54.90
55347;BME280;41218;55.700;38.270;2022-08-06T15:41:51;100093.47;;;27.94;55.21
55347;BME280;41218;55.700;38.270;2022-08-06T15:46:53;100087.34;;;27.86;55.10
55347;BME280;41218;55.700;38.270;2022-08-06T15:51:53;100072.41;;;27.76;54.81
55347;BME280;41218;55.700;38.270;2022-08-06T15:56:54;100095.88;;;27.86;54.94
55347;BME280;41218;55.700;38.270;2022-08-06T16:01:55;100088.00;;;27.81;54.78
55347;BME280;41218;55.700;38.270;2022-08-06T16:06:55;100083.16;;;27.72;55.39
55347;BME280;41218;55.700;38.270;2022-08-06T16:11:56;100088.38;;;27.74;55.11
55347;BME280;41218;55.700;38.270;2022-08-06T16:16:58;100085.09;;;27.66;54.61
55347;BME280;41218;55.700;38.270;2022-08-06T16:21:58;100095.91;;;27.77;54.71
55347;BME280;41218;55.700;38.270;2022-08-06T16:26:59;100083.69;;;27.62;54.77
55347;BME280;41218;55.700;38.270;2022-08-06T16:32:04;100083.72;;;27.52;55.32
55347;BME280;41218;55.700;38.270;2022-08-06T16:37:05;100066.91;;;27.40;55.54
55347;BME280;41218;55.700;38.270;2022-08-06T16:42:07;100092.56;;;27.45;55.67
55347;BME280;41218;55.700;38.270;2022-08-06T16:47:08;100094.16;;;27.37;55.66
55347;BME280;41218;55.700;38.270;2022-08-06T16:52:09;100083.34;;;27.17;56.07
55347;BME280;41218;55.700;38.270;2022-08-06T16:57:09;100107.13;;;27.20;55.66
55347;BME280;41218;55.700;38.270;2022-08-06T17:02:14;100099.41;;;27.11;55.48
55347;BME280;41218;55.700;38.270;2022-08-06T17:07:34;100103.06;;;27.02;55.42
55347;BME280;41218;55.700;38.270;2022-08-06T17:12:35;100104.81;;;26.90;55.45
55347;BME280;41218;55.700;38.270;2022-08-06T17:17:36;100089.56;;;26.69;55.03
55347;BME280;41218;55.700;38.270;2022-08-06T17:22:37;100096.50;;;26.59;54.93
55347;BME280;41218;55.700;38.270;2022-08-06T17:27:40;100106.53;;;26.51;54.98
55347;BME280;41218;55.700;38.270;2022-08-06T17:32:42;100104.19;;;26.40;54.81
55347;BME280;41218;55.700;38.270;2022-08-06T17:37:46;100111.72;;;26.25;54.82
55347;BME280;41218;55.700;38.270;2022-08-06T17:42:47;100115.47;;;26.22;54.72
55347;BME280;41218;55.700;38.270;2022-08-06T17:47:48;100116.38;;;26.09;54.53
55347;BME280;41218;55.700;38.270;2022-08-06T17:52:49;100121.72;;;25.98;54.58
55347;BME280;41218;55.700;38.270;2022-08-06T17:57:49;100119.31;;;25.87;54.40
55347;BME280;41218;55.700;38.270;2022-08-06T18:02:50;100118.16;;;25.75;54.46
55347;BME280;41218;55.700;38.270;2022-08-06T18:07:50;100105.50;;;25.58;54.52
55347;BME280;41218;55.700;38.270;2022-08-06T18:12:51;100124.66;;;25.54;54.30
55347;BME280;41218;55.700;38.270;2022-08-06T18:17:55;100098.41;;;25.22;54.43
55347;BME280;41218;55.700;38.270;2022-08-06T18:22:57;100102.13;;;25.19;54.84
55347;BME280;41218;55.700;38.270;2022-08-06T18:27:58;100115.50;;;25.18;54.78
55347;BME280;41218;55.700;38.270;2022-08-06T18:33:00;100114.13;;;25.01;54.98
55347;BME280;41218;55.700;38.270;2022-08-06T18:38:01;100111.69;;;24.90;55.19
55347;BME280;41218;55.700;38.270;2022-08-06T18:43:02;100124.38;;;24.86;55.38
55347;BME280;41218;55.700;38.270;2022-08-06T18:48:04;100121.47;;;24.76;55.54
55347;BME280;41218;55.700;38.270;2022-08-06T18:53:05;100095.13;;;24.57;55.52
55347;BME280;41218;55.700;38.270;2022-08-06T18:58:06;100096.72;;;24.46;55.89
55347;BME280;41218;55.700;38.270;2022-08-06T19:03:07;100093.66;;;24.40;55.68
55347;BME280;41218;55.700;38.270;2022-08-06T19:08:08;100096.88;;;24.29;56.16
55347;BME280;41218;55.700;38.270;2022-08-06T19:13:09;100094.06;;;24.29;55.97
55347;BME280;41218;55.700;38.270;2022-08-06T19:18:09;100072.50;;;24.10;56.45
55347;BME280;41218;55.700;38.270;2022-08-06T19:23:10;100083.59;;;24.04;56.41
55347;BME280;41218;55.700;38.270;2022-08-06T19:28:10;100085.75;;;24.00;56.65
55347;BME280;41218;55.700;38.270;2022-08-06T19:33:11;100050.06;;;23.68;56.52
55347;BME280;41218;55.700;38.270;2022-08-06T19:38:12;100073.31;;;23.72;56.67
55347;BME280;41218;55.700;38.270;2022-08-06T19:43:15;100083.84;;;23.71;56.82
55347;BME280;41218;55.700;38.270;2022-08-06T19:48:16;100067.38;;;23.57;56.74
55347;BME280;41218;55.700;38.270;2022-08-06T19:53:16;100068.94;;;23.45;57.02
55347;BME280;41218;55.700;38.270;2022-08-06T19:58:17;100078.19;;;23.46;57.21
55347;BME280;41218;55.700;38.270;2022-08-06T20:03:18;100072.88;;;23.35;57.18
55347;BME280;41218;55.700;38.270;2022-08-06T20:08:18;100085.75;;;23.36;57.20
55347;BME280;41218;55.700;38.270;2022-08-06T20:13:19;100066.91;;;23.20;57.68
55347;BME280;41218;55.700;38.270;2022-08-06T20:18:20;100089.81;;;23.22;57.58
55347;BME280;41218;55.700;38.270;2022-08-06T20:23:21;100088.78;;;23.16;57.48
55347;BME280;41218;55.700;38.270;2022-08-06T20:28:26;100099.81;;;23.10;57.79
55347;BME280;41218;55.700;38.270;2022-08-06T20:33:27;100064.22;;;22.87;57.97
55347;BME280;41218;55.700;38.270;2022-08-06T20:38:30;100089.47;;;22.91;57.76
55347;BME280;41218;55.700;38.270;2022-08-06T20:43:30;100072.53;;;22.78;58.07
55347;BME280;41218;55.700;38.270;2022-08-06T20:48:31;100089.34;;;22.82;58.17
55347;BME280;41218;55.700;38.270;2022-08-06T20:53:33;100090.78;;;22.73;58.26
55347;BME280;41218;55.700;38.270;2022-08-06T20:58:35;100086.47;;;22.69;58.48
55347;BME280;41218;55.700;38.270;2022-08-06T21:03:35;100081.81;;;22.62;58.48
55347;BME280;41218;55.700;38.270;2022-08-06T21:08:36;100079.56;;;22.57;58.57
55347;BME280;41218;55.700;38.270;2022-08-06T21:13:37;100079.75;;;22.50;58.57
55347;BME280;41218;55.700;38.270;2022-08-06T21:18:39;100066.75;;;22.39;58.48
55347;BME280;41218;55.700;38.270;2022-08-06T21:23:40;100073.63;;;22.38;58.56
55347;BME280;41218;55.700;38.270;2022-08-06T21:28:40;100069.38;;;22.30;58.69
55347;BME280;41218;55.700;38.270;2022-08-06T21:33:41;100070.78;;;22.22;58.71
55347;BME280;41218;55.700;38.270;2022-08-06T21:38:41;100069.38;;;22.14;58.84
55347;BME280;41218;55.700;38.270;2022-08-06T21:43:42;100077.34;;;22.03;58.98
55347;BME280;41218;55.700;38.270;2022-08-06T21:48:42;100074.94;;;22.01;59.24
55347;BME280;41218;55.700;38.270;2022-08-06T21:53:43;100071.00;;;21.98;58.99
55347;BME280;41218;55.700;38.270;2022-08-06T21:58:44;100054.22;;;21.78;59.27
55347;BME280;41218;55.700;38.270;2022-08-06T22:03:45;100064.91;;;21.84;59.21
55347;BME280;41218;55.700;38.270;2022-08-06T22:08:46;100065.47;;;21.78;59.36
55347;BME280;41218;55.700;38.270;2022-08-06T22:13:47;100067.22;;;21.72;59.25
55347;BME280;41218;55.700;38.270;2022-08-06T22:18:47;100066.94;;;21.67;59.46
55347;BME280;41218;55.700;38.270;2022-08-06T22:23:48;100040.06;;;21.49;59.62
55347;BME280;41218;55.700;38.270;2022-08-06T22:28:48;100031.03;;;21.38;59.74
55347;BME280;41218;55.700;38.270;2022-08-06T22:33:49;100038.22;;;21.39;59.65
55347;BME280;41218;55.700;38.270;2022-08-06T22:38:50;100029.63;;;21.30;59.61
55347;BME280;41218;55.700;38.270;2022-08-06T22:43:51;100042.91;;;21.29;60.02
55347;BME280;41218;55.700;38.270;2022-08-06T22:48:51;100052.47;;;21.32;59.99
55347;BME280;41218;55.700;38.270;2022-08-06T22:53:52;100041.97;;;21.16;60.17
55347;BME280;41218;55.700;38.270;2022-08-06T22:58:52;100031.25;;;21.11;60.10
55347;BME280;41218;55.700;38.270;2022-08-06T23:03:54;100038.09;;;21.10;60.40
55347;BME280;41218;55.700;38.270;2022-08-06T23:08:56;100033.50;;;20.99;60.30
55347;BME280;41218;55.700;38.270;2022-08-06T23:13:57;100042.78;;;20.96;60.46
55347;BME280;41218;55.700;38.270;2022-08-06T23:18:57;100039.72;;;20.91;60.49
55347;BME280;41218;55.700;38.270;2022-08-06T23:24:00;100019.41;;;20.63;60.52
55347;BME280;41218;55.700;38.270;2022-08-06T23:29:04;100040.28;;;20.82;60.44
55347;BME280;41218;55.700;38.270;2022-08-06T23:34:06;100044.69;;;20.83;60.69
55347;BME280;41218;55.700;38.270;2022-08-06T23:39:08;100022.28;;;20.59;60.57
55347;BME280;41218;55.700;38.270;2022-08-06T23:44:09;100055.69;;;20.74;60.71
55347;BME280;41218;55.700;38.270;2022-08-06T23:49:09;100036.75;;;20.58;60.78
55347;BME280;41218;55.700;38.270;2022-08-06T23:54:10;100023.63;;;20.51;60.93
55347;BME280;41218;55.700;38.270;2022-08-06T23:59:11;100045.25;;;20.54;60.74
